sensor_id;sensor_type;location;lat;lon;timestamp;P1;durP1;ratioP1;P2;durP2;ratioP2
73084;SDS011;62974;49.460;10.892;2023-02-01T00:01:07;6.05;;;3.22;;
73084;SDS011;62974;49.460;10.892;2023-02-01T00:03:35;3.60;;;2.63;;
73084;SDS011;62974;49.460;10.892;2023-02-01T00:06:03;6.10;;;3.10;;
73084;SDS011;62974;49.460;10.892;2023-02-01T00:08:31;3.90;;;1.98;;
73084;SDS011;62974;49.460;10.892;2023-02-01T00:10:59;3.08;;;2.22;;
73084;SDS011;62974;49.460;10.892;2023-02-01T00:13:28;6.90;;;3.53;;
73084;SDS011;62974;49.460;10.892;2023-02-01T00:16:03;1.80;;;0.88;;
73084;SDS011;62974;49.460;10.892;2023-02-01T00:18:31;6.65;;;3.58;;
73084;SDS011;62974;49.460;10.892;2023-02-01T00:20:58;5.03;;;2.80;;
73084;SDS011;62974;49.460;10.892;2023-02-01T00:23:26;8.93;;;3.67;;
73084;SDS011;62974;49.460;10.892;2023-02-01T00:25:54;8.38;;;4.05;;
73084;SDS011;62974;49.460;10.892;2023-02-01T00:28:21;2.63;;;1.85;;
73084;SDS011;62974;49.460;10.892;2023-02-01T00:30:55;7.10;;;3.67;;
73084;SDS011;62974;49.460;10.892;2023-02-01T00:33:24;2.70;;;1.52;;
73084;SDS011;62974;49.460;10.892;2023-02-01T00:35:55;6.13;;;3.58;;
73084;SDS011;62974;49.460;10.892;2023-02-01T00:38:23;1.83;;;0.82;;
73084;SDS011;62974;49.460;10.892;2023-02-01T00:40:51;4.25;;;1.98;;
73084;SDS011;62974;49.460;10.892;2023-02-01T00:43:18;4.53;;;2.67;;
73084;SDS011;62974;49.460;10.892;2023-02-01T00:45:46;5.47;;;2.97;;
73084;SDS011;62974;49.460;10.892;2023-02-01T00:48:14;3.83;;;2.15;;
73084;SDS011;62974;49.460;10.892;2023-02-01T00:50:43;4.10;;;1.83;;
73084;SDS011;62974;49.460;10.892;2023-02-01T00:53:10;3.58;;;1.83;;
73084;SDS011;62974;49.460;10.892;2023-02-01T00:55:39;5.47;;;3.33;;
73084;SDS011;62974;49.460;10.892;2023-02-01T00:58:06;5.00;;;1.80;;
73084;SDS011;62974;49.460;10.892;2023-02-01T01:00:35;4.78;;;2.92;;
73084;SDS011;62974;49.460;10.892;2023-02-01T01:03:02;8.35;;;3.70;;
73084;SDS011;62974;49.460;10.892;2023-02-01T01:05:44;2.88;;;2.25;;
73084;SDS011;62974;49.460;10.892;2023-02-01T01:08:13;1.85;;;1.13;;
73084;SDS011;62974;49.460;10.892;2023-02-01T01:10:41;3.90;;;1.92;;
73084;SDS011;62974;49.460;10.892;2023-02-01T01:13:09;5.85;;;2.83;;
73084;SDS011;62974;49.460;10.892;2023-02-01T01:15:37;4.78;;;2.40;;
73084;SDS011;62974;49.460;10.892;2023-02-01T01:18:05;4.75;;;2.53;;
73084;SDS011;62974;49.460;10.892;2023-02-01T01:20:34;2.90;;;1.40;;
73084;SDS011;62974;49.460;10.892;2023-02-01T01:23:03;2.67;;;1.40;;
73084;SDS011;62974;49.460;10.892;2023-02-01T01:25:31;6.18;;;3.05;;
73084;SDS011;62974;49.460;10.892;2023-02-01T01:27:59;4.38;;;1.95;;
73084;SDS011;62974;49.460;10.892;2023-02-01T01:30:26;3.67;;;1.50;;
73084;SDS011;62974;49.460;10.892;2023-02-01T01:32:54;5.53;;;2.50;;
73084;SDS011;62974;49.460;10.892;2023-02-01T01:35:22;6.57;;;3.05;;
73084;SDS011;62974;49.460;10.892;2023-02-01T01:37:49;2.08;;;0.95;;
73084;SDS011;62974;49.460;10.892;2023-02-01T01:40:18;1.60;;;1.00;;
73084;SDS011;62974;49.460;10.892;2023-02-01T01:42:46;11.57;;;2.53;;
73084;SDS011;62974;49.460;10.892;2023-02-01T01:45:19;4.32;;;2.47;;
73084;SDS011;62974;49.460;10.892;2023-02-01T01:47:51;7.38;;;4.03;;
73084;SDS011;62974;49.460;10.892;2023-02-01T01:50:22;6.25;;;3.25;;
73084;SDS011;62974;49.460;10.892;2023-02-01T01:52:52;3.08;;;1.90;;
73084;SDS011;62974;49.460;10.892;2023-02-01T01:55:24;2.20;;;1.40;;
73084;SDS011;62974;49.460;10.892;2023-02-01T01:57:55;4.30;;;1.95;;
73084;SDS011;62974;49.460;10.892;2023-02-01T02:00:27;7.40;;;3.13;;
73084;SDS011;62974;49.460;10.892;2023-02-01T02:02:56;0.20;;;0.20;;
73084;SDS011;62974;49.460;10.892;2023-02-01T02:05:29;4.88;;;0.90;;
73084;SDS011;62974;49.460;10.892;2023-02-01T02:07:58;6.20;;;2.80;;
73084;SDS011;62974;49.460;10.892;2023-02-01T02:10:28;6.35;;;2.70;;
73084;SDS011;62974;49.460;10.892;2023-02-01T02:13:11;7.80;;;3.22;;
73084;SDS011;62974;49.460;10.892;2023-02-01T02:15:42;4.40;;;2.45;;
73084;SDS011;62974;49.460;10.892;2023-02-01T02:18:18;2.45;;;1.42;;
73084;SDS011;62974;49.460;10.892;2023-02-01T02:21:08;1.40;;;1.20;;
73084;SDS011;62974;49.460;10.892;2023-02-01T02:30:11;4.72;;;2.88;;
73084;SDS011;62974;49.460;10.892;2023-02-01T02:36:15;9.90;;;3.85;;
73084;SDS011;62974;49.460;10.892;2023-02-01T02:38:48;6.40;;;2.78;;
73084;SDS011;62974;49.460;10.892;2023-02-01T02:41:24;1.58;;;1.33;;
73084;SDS011;62974;49.460;10.892;2023-02-01T02:44:17;7.18;;;3.25;;
73084;SDS011;62974;49.460;10.892;2023-02-01T02:47:10;3.70;;;2.58;;
73084;SDS011;62974;49.460;10.892;2023-02-01T02:49:52;4.22;;;1.77;;
73084;SDS011;62974;49.460;10.892;2023-02-01T02:52:42;6.63;;;3.90;;
73084;SDS011;62974;49.460;10.892;2023-02-01T02:55:32;4.80;;;2.42;;
73084;SDS011;62974;49.460;10.892;2023-02-01T02:58:04;0.52;;;0.50;;
73084;SDS011;62974;49.460;10.892;2023-02-01T03:00:50;3.83;;;2.00;;
73084;SDS011;62974;49.460;10.892;2023-02-01T03:03:38;2.85;;;1.67;;
73084;SDS011;62974;49.460;10.892;2023-02-01T03:06:24;3.28;;;2.25;;
73084;SDS011;62974;49.460;10.892;2023-02-01T03:11:24;5.22;;;3.08;;
73084;SDS011;62974;49.460;10.892;2023-02-01T03:14:14;2.78;;;1.42;;
73084;SDS011;62974;49.460;10.892;2023-02-01T03:16:46;3.75;;;2.00;;
73084;SDS011;62974;49.460;10.892;2023-02-01T03:19:18;4.45;;;2.38;;
73084;SDS011;62974;49.460;10.892;2023-02-01T03:21:50;3.95;;;2.10;;
73084;SDS011;62974;49.460;10.892;2023-02-01T03:24:25;5.82;;;2.70;;
73084;SDS011;62974;49.460;10.892;2023-02-01T03:27:02;1.30;;;1.05;;
73084;SDS011;62974;49.460;10.892;2023-02-01T03:29:37;6.70;;;3.97;;
73084;SDS011;62974;49.460;10.892;2023-02-01T03:32:11;4.03;;;2.03;;
73084;SDS011;62974;49.460;10.892;2023-02-01T03:34:39;4.85;;;2.42;;
73084;SDS011;62974;49.460;10.892;2023-02-01T03:37:09;6.90;;;3.17;;
73084;SDS011;62974;49.460;10.892;2023-02-01T03:39:41;6.85;;;3.63;;
73084;SDS011;62974;49.460;10.892;2023-02-01T03:44:46;4.30;;;1.63;;
73084;SDS011;62974;49.460;10.892;2023-02-01T03:47:19;5.95;;;2.88;;
73084;SDS011;62974;49.460;10.892;2023-02-01T03:49:50;3.80;;;1.58;;
73084;SDS011;62974;49.460;10.892;2023-02-01T03:52:24;4.60;;;2.80;;
73084;SDS011;62974;49.460;10.892;2023-02-01T03:54:58;3.85;;;1.85;;
73084;SDS011;62974;49.460;10.892;2023-02-01T03:57:27;2.50;;;1.88;;
73084;SDS011;62974;49.460;10.892;2023-02-01T04:00:03;2.30;;;1.70;;
73084;SDS011;62974;49.460;10.892;2023-02-01T04:02:33;3.75;;;2.55;;
73084;SDS011;62974;49.460;10.892;2023-02-01T04:05:01;7.00;;;2.28;;
73084;SDS011;62974;49.460;10.892;2023-02-01T04:07:28;6.63;;;3.20;;
73084;SDS011;62974;49.460;10.892;2023-02-01T04:09:56;5.97;;;3.20;;
73084;SDS011;62974;49.460;10.892;2023-02-01T04:12:25;9.18;;;4.65;;
73084;SDS011;62974;49.460;10.892;2023-02-01T04:14:52;3.25;;;1.65;;
73084;SDS011;62974;49.460;10.892;2023-02-01T04:17:20;7.07;;;3.78;;
73084;SDS011;62974;49.460;10.892;2023-02-01T04:19:47;7.97;;;3.85;;
73084;SDS011;62974;49.460;10.892;2023-02-01T04:22:15;5.68;;;3.13;;
73084;SDS011;62974;49.460;10.892;2023-02-01T04:24:42;6.07;;;3.00;;
73084;SDS011;62974;49.460;10.892;2023-02-01T04:27:10;1.95;;;1.38;;
73084;SDS011;62974;49.460;10.892;2023-02-01T04:29:39;9.85;;;4.40;;
73084;SDS011;62974;49.460;10.892;2023-02-01T04:32:07;5.30;;;3.63;;
73084;SDS011;62974;49.460;10.892;2023-02-01T04:34:34;7.43;;;3.03;;
73084;SDS011;62974;49.460;10.892;2023-02-01T04:37:02;6.00;;;2.83;;
73084;SDS011;62974;49.460;10.892;2023-02-01T04:39:30;4.60;;;2.70;;
73084;SDS011;62974;49.460;10.892;2023-02-01T04:41:57;1.15;;;0.80;;
73084;SDS011;62974;49.460;10.892;2023-02-01T04:44:25;5.43;;;2.60;;
73084;SDS011;62974;49.460;10.892;2023-02-01T04:46:53;8.13;;;4.20;;
73084;SDS011;62974;49.460;10.892;2023-02-01T04:49:21;9.32;;;4.90;;
73084;SDS011;62974;49.460;10.892;2023-02-01T04:51:48;6.32;;;2.45;;
73084;SDS011;62974;49.460;10.892;2023-02-01T04:54:16;7.05;;;1.98;;
73084;SDS011;62974;49.460;10.892;2023-02-01T04:56:43;6.45;;;3.83;;
73084;SDS011;62974;49.460;10.892;2023-02-01T04:59:11;9.32;;;4.20;;
73084;SDS011;62974;49.460;10.892;2023-02-01T05:01:39;3.75;;;2.65;;
73084;SDS011;62974;49.460;10.892;2023-02-01T05:04:08;8.70;;;4.43;;
73084;SDS011;62974;49.460;10.892;2023-02-01T05:06:36;3.88;;;2.30;;
73084;SDS011;62974;49.460;10.892;2023-02-01T05:09:04;7.95;;;4.30;;
73084;SDS011;62974;49.460;10.892;2023-02-01T05:11:31;8.65;;;4.88;;
73084;SDS011;62974;49.460;10.892;2023-02-01T05:14:16;1.42;;;0.98;;
73084;SDS011;62974;49.460;10.892;2023-02-01T05:16:44;9.57;;;5.00;;
73084;SDS011;62974;49.460;10.892;2023-02-01T05:19:13;13.43;;;7.20;;
73084;SDS011;62974;49.460;10.892;2023-02-01T05:21:41;28.35;;;9.90;;
73084;SDS011;62974;49.460;10.892;2023-02-01T05:24:08;17.90;;;8.75;;
73084;SDS011;62974;49.460;10.892;2023-02-01T05:26:41;13.50;;;7.47;;
73084;SDS011;62974;49.460;10.892;2023-02-01T05:29:09;15.95;;;6.57;;
73084;SDS011;62974;49.460;10.892;2023-02-01T05:31:37;12.23;;;5.78;;
73084;SDS011;62974;49.460;10.892;2023-02-01T05:34:06;8.05;;;4.85;;
73084;SDS011;62974;49.460;10.892;2023-02-01T05:36:35;11.48;;;6.85;;
73084;SDS011;62974;49.460;10.892;2023-02-01T05:39:02;14.60;;;6.30;;
73084;SDS011;62974;49.460;10.892;2023-02-01T05:41:30;4.13;;;2.90;;
73084;SDS011;62974;49.460;10.892;2023-02-01T05:43:57;7.85;;;5.05;;
73084;SDS011;62974;49.460;10.892;2023-02-01T05:46:25;9.73;;;5.05;;
73084;SDS011;62974;49.460;10.892;2023-02-01T05:48:52;9.90;;;4.82;;
73084;SDS011;62974;49.460;10.892;2023-02-01T05:51:20;3.65;;;2.03;;
73084;SDS011;62974;49.460;10.892;2023-02-01T05:53:49;8.57;;;4.22;;
73084;SDS011;62974;49.460;10.892;2023-02-01T05:56:16;6.38;;;3.80;;
73084;SDS011;62974;49.460;10.892;2023-02-01T05:58:44;6.93;;;4.25;;
73084;SDS011;62974;49.460;10.892;2023-02-01T06:01:11;6.05;;;3.25;;
73084;SDS011;62974;49.460;10.892;2023-02-01T06:03:39;4.10;;;2.40;;
73084;SDS011;62974;49.460;10.892;2023-02-01T06:06:06;4.50;;;2.25;;
73084;SDS011;62974;49.460;10.892;2023-02-01T06:08:34;1.95;;;1.50;;
73084;SDS011;62974;49.460;10.892;2023-02-01T06:11:04;2.88;;;1.92;;
73084;SDS011;62974;49.460;10.892;2023-02-01T06:13:32;0.47;;;0.43;;
73084;SDS011;62974;49.460;10.892;2023-02-01T06:16:00;2.55;;;1.63;;
73084;SDS011;62974;49.460;10.892;2023-02-01T06:18:29;1.58;;;1.08;;
73084;SDS011;62974;49.460;10.892;2023-02-01T06:20:57;3.88;;;2.10;;
73084;SDS011;62974;49.460;10.892;2023-02-01T06:23:26;3.45;;;1.98;;
73084;SDS011;62974;49.460;10.892;2023-02-01T06:25:58;2.10;;;1.10;;
73084;SDS011;62974;49.460;10.892;2023-02-01T06:28:28;2.38;;;1.10;;
73084;SDS011;62974;49.460;10.892;2023-02-01T06:33:24;0.90;;;0.50;;
73084;SDS011;62974;49.460;10.892;2023-02-01T06:35:56;1.45;;;1.35;;
73084;SDS011;62974;49.460;10.892;2023-02-01T06:38:24;2.45;;;1.38;;
73084;SDS011;62974;49.460;10.892;2023-02-01T06:40:53;1.65;;;1.13;;
73084;SDS011;62974;49.460;10.892;2023-02-01T06:43:21;3.88;;;1.50;;
73084;SDS011;62974;49.460;10.892;2023-02-01T06:45:51;1.00;;;0.63;;
73084;SDS011;62974;49.460;10.892;2023-02-01T06:48:19;0.60;;;0.45;;
73084;SDS011;62974;49.460;10.892;2023-02-01T06:50:46;1.65;;;0.63;;
73084;SDS011;62974;49.460;10.892;2023-02-01T06:53:14;1.38;;;0.90;;
73084;SDS011;62974;49.460;10.892;2023-02-01T06:55:41;1.25;;;1.15;;
73084;SDS011;62974;49.460;10.892;2023-02-01T06:58:09;1.35;;;1.20;;
73084;SDS011;62974;49.460;10.892;2023-02-01T07:00:36;1.85;;;1.45;;
73084;SDS011;62974;49.460;10.892;2023-02-01T07:03:05;2.30;;;1.20;;
73084;SDS011;62974;49.460;10.892;2023-02-01T07:05:33;2.38;;;0.90;;
73084;SDS011;62974;49.460;10.892;2023-02-01T07:08:00;1.58;;;0.98;;
73084;SDS011;62974;49.460;10.892;2023-02-01T07:10:28;1.83;;;1.25;;
73084;SDS011;62974;49.460;10.892;2023-02-01T07:12:56;1.73;;;1.08;;
73084;SDS011;62974;49.460;10.892;2023-02-01T07:15:23;2.03;;;1.00;;
73084;SDS011;62974;49.460;10.892;2023-02-01T07:17:51;2.85;;;1.60;;
73084;SDS011;62974;49.460;10.892;2023-02-01T07:20:22;4.13;;;2.15;;
73084;SDS011;62974;49.460;10.892;2023-02-01T07:22:54;0.98;;;0.75;;
73084;SDS011;62974;49.460;10.892;2023-02-01T07:25:22;4.70;;;1.98;;
73084;SDS011;62974;49.460;10.892;2023-02-01T07:27:50;4.72;;;1.52;;
73084;SDS011;62974;49.460;10.892;2023-02-01T07:30:17;3.55;;;1.83;;
73084;SDS011;62974;49.460;10.892;2023-02-01T07:32:45;2.67;;;1.23;;
73084;SDS011;62974;49.460;10.892;2023-02-01T07:35:13;2.33;;;1.42;;
73084;SDS011;62974;49.460;10.892;2023-02-01T07:37:42;7.03;;;1.50;;
73084;SDS011;62974;49.460;10.892;2023-02-01T07:40:10;1.05;;;0.95;;
73084;SDS011;62974;49.460;10.892;2023-02-01T07:42:38;4.03;;;1.70;;
73084;SDS011;62974;49.460;10.892;2023-02-01T07:45:06;3.80;;;1.95;;
73084;SDS011;62974;49.460;10.892;2023-02-01T07:47:46;6.50;;;2.50;;
73084;SDS011;62974;49.460;10.892;2023-02-01T07:50:14;4.93;;;1.88;;
73084;SDS011;62974;49.460;10.892;2023-02-01T07:52:43;3.25;;;1.48;;
73084;SDS011;62974;49.460;10.892;2023-02-01T07:55:10;5.22;;;1.85;;
73084;SDS011;62974;49.460;10.892;2023-02-01T07:57:38;5.53;;;1.58;;
73084;SDS011;62974;49.460;10.892;2023-02-01T08:00:06;1.13;;;1.00;;
73084;SDS011;62974;49.460;10.892;2023-02-01T08:02:52;4.38;;;1.85;;
73084;SDS011;62974;49.460;10.892;2023-02-01T08:05:19;2.00;;;1.30;;
73084;SDS011;62974;49.460;10.892;2023-02-01T08:07:49;1.95;;;1.20;;
73084;SDS011;62974;49.460;10.892;2023-02-01T08:10:17;4.20;;;1.65;;
73084;SDS011;62974;49.460;10.892;2023-02-01T08:12:45;1.65;;;0.95;;
73084;SDS011;62974;49.460;10.892;2023-02-01T08:15:14;2.40;;;1.33;;
73084;SDS011;62974;49.460;10.892;2023-02-01T08:17:45;2.97;;;0.50;;
73084;SDS011;62974;49.460;10.892;2023-02-01T08:20:13;3.67;;;1.30;;
73084;SDS011;62974;49.460;10.892;2023-02-01T08:22:42;5.05;;;2.13;;
73084;SDS011;62974;49.460;10.892;2023-02-01T08:25:11;1.58;;;0.82;;
73084;SDS011;62974;49.460;10.892;2023-02-01T08:27:38;10.43;;;2.17;;
73084;SDS011;62974;49.460;10.892;2023-02-01T08:30:06;6.47;;;1.50;;
73084;SDS011;62974;49.460;10.892;2023-02-01T08:35:02;3.30;;;1.48;;
73084;SDS011;62974;49.460;10.892;2023-02-01T08:37:30;1.65;;;0.82;;
73084;SDS011;62974;49.460;10.892;2023-02-01T08:39:58;3.70;;;2.10;;
73084;SDS011;62974;49.460;10.892;2023-02-01T08:42:27;4.43;;;1.80;;
73084;SDS011;62974;49.460;10.892;2023-02-01T08:45:08;0.63;;;0.63;;
73084;SDS011;62974;49.460;10.892;2023-02-01T08:47:37;4.40;;;1.75;;
73084;SDS011;62974;49.460;10.892;2023-02-01T08:50:05;3.60;;;2.08;;
73084;SDS011;62974;49.460;10.892;2023-02-01T08:52:33;5.65;;;1.67;;
73084;SDS011;62974;49.460;10.892;2023-02-01T08:55:03;4.70;;;1.75;;
73084;SDS011;62974;49.460;10.892;2023-02-01T08:57:33;5.32;;;2.00;;
73084;SDS011;62974;49.460;10.892;2023-02-01T09:00:00;5.55;;;2.28;;
73084;SDS011;62974;49.460;10.892;2023-02-01T09:02:28;5.53;;;1.85;;
73084;SDS011;62974;49.460;10.892;2023-02-01T09:04:56;2.03;;;1.42;;
73084;SDS011;62974;49.460;10.892;2023-02-01T09:07:26;6.50;;;2.30;;
73084;SDS011;62974;49.460;10.892;2023-02-01T09:09:53;4.70;;;2.10;;
73084;SDS011;62974;49.460;10.892;2023-02-01T09:12:22;3.30;;;1.65;;
73084;SDS011;62974;49.460;10.892;2023-02-01T09:14:51;3.47;;;1.70;;
73084;SDS011;62974;49.460;10.892;2023-02-01T09:17:19;4.53;;;2.33;;
73084;SDS011;62974;49.460;10.892;2023-02-01T09:19:46;5.60;;;1.83;;
73084;SDS011;62974;49.460;10.892;2023-02-01T09:22:14;5.78;;;2.00;;
73084;SDS011;62974;49.460;10.892;2023-02-01T09:24:41;3.70;;;1.33;;
73084;SDS011;62974;49.460;10.892;2023-02-01T09:27:11;3.70;;;1.42;;
73084;SDS011;62974;49.460;10.892;2023-02-01T09:29:40;2.50;;;1.10;;
73084;SDS011;62974;49.460;10.892;2023-02-01T09:32:09;5.45;;;1.17;;
73084;SDS011;62974;49.460;10.892;2023-02-01T09:34:36;4.47;;;0.73;;
73084;SDS011;62974;49.460;10.892;2023-02-01T09:37:04;0.75;;;0.60;;
73084;SDS011;62974;49.460;10.892;2023-02-01T09:39:31;1.58;;;0.70;;
73084;SDS011;62974;49.460;10.892;2023-02-01T09:42:05;3.85;;;1.15;;
73084;SDS011;62974;49.460;10.892;2023-02-01T09:44:48;5.55;;;1.38;;
73084;SDS011;62974;49.460;10.892;2023-02-01T09:47:28;0.95;;;0.75;;
73084;SDS011;62974;49.460;10.892;2023-02-01T09:50:04;3.50;;;1.40;;
73084;SDS011;62974;49.460;10.892;2023-02-01T09:52:42;1.17;;;0.57;;
73084;SDS011;62974;49.460;10.892;2023-02-01T09:55:13;5.60;;;2.20;;
73084;SDS011;62974;49.460;10.892;2023-02-01T09:57:46;1.90;;;1.20;;
73084;SDS011;62974;49.460;10.892;2023-02-01T10:00:23;8.15;;;2.20;;
73084;SDS011;62974;49.460;10.892;2023-02-01T10:02:57;8.65;;;3.55;;
73084;SDS011;62974;49.460;10.892;2023-02-01T10:08:24;7.45;;;3.25;;
73084;SDS011;62974;49.460;10.892;2023-02-01T10:10:58;2.95;;;2.13;;
73084;SDS011;62974;49.460;10.892;2023-02-01T10:13:44;3.97;;;1.83;;
73084;SDS011;62974;49.460;10.892;2023-02-01T10:16:24;7.60;;;2.58;;
73084;SDS011;62974;49.460;10.892;2023-02-01T10:19:08;6.28;;;3.03;;
73084;SDS011;62974;49.460;10.892;2023-02-01T10:21:50;8.52;;;1.77;;
73084;SDS011;62974;49.460;10.892;2023-02-01T10:24:25;7.90;;;3.13;;
73084;SDS011;62974;49.460;10.892;2023-02-01T10:27:02;2.25;;;1.20;;
73084;SDS011;62974;49.460;10.892;2023-02-01T10:29:38;6.05;;;2.50;;
73084;SDS011;62974;49.460;10.892;2023-02-01T10:32:10;9.43;;;2.97;;
73084;SDS011;62974;49.460;10.892;2023-02-01T10:34:41;6.38;;;2.47;;
73084;SDS011;62974;49.460;10.892;2023-02-01T10:37:14;7.85;;;2.85;;
73084;SDS011;62974;49.460;10.892;2023-02-01T10:39:47;6.15;;;1.27;;
73084;SDS011;62974;49.460;10.892;2023-02-01T10:44:45;2.10;;;1.55;;
73084;SDS011;62974;49.460;10.892;2023-02-01T10:47:14;6.57;;;1.83;;
73084;SDS011;62974;49.460;10.892;2023-02-01T10:49:47;6.53;;;2.42;;
73084;SDS011;62974;49.460;10.892;2023-02-01T10:52:20;7.75;;;2.70;;
73084;SDS011;62974;49.460;10.892;2023-02-01T10:54:55;7.90;;;1.83;;
73084;SDS011;62974;49.460;10.892;2023-02-01T10:57:23;2.63;;;1.63;;
73084;SDS011;62974;49.460;10.892;2023-02-01T10:59:54;5.28;;;2.85;;
73084;SDS011;62974;49.460;10.892;2023-02-01T11:02:25;2.20;;;1.98;;
73084;SDS011;62974;49.460;10.892;2023-02-01T11:05:01;5.72;;;1.90;;
73084;SDS011;62974;49.460;10.892;2023-02-01T11:07:31;5.15;;;2.20;;
73084;SDS011;62974;49.460;10.892;2023-02-01T11:10:00;7.20;;;2.75;;
73084;SDS011;62974;49.460;10.892;2023-02-01T11:12:29;1.70;;;1.00;;
73084;SDS011;62974;49.460;10.892;2023-02-01T11:14:59;2.60;;;1.50;;
73084;SDS011;62974;49.460;10.892;2023-02-01T11:17:32;1.75;;;1.15;;
73084;SDS011;62974;49.460;10.892;2023-02-01T11:20:08;8.32;;;2.35;;
73084;SDS011;62974;49.460;10.892;2023-02-01T11:22:45;5.35;;;2.17;;
73084;SDS011;62974;49.460;10.892;2023-02-01T11:25:14;4.85;;;2.08;;
73084;SDS011;62974;49.460;10.892;2023-02-01T11:27:43;3.75;;;0.63;;
73084;SDS011;62974;49.460;10.892;2023-02-01T11:30:22;2.50;;;0.93;;
73084;SDS011;62974;49.460;10.892;2023-02-01T11:32:58;7.63;;;1.77;;
73084;SDS011;62974;49.460;10.892;2023-02-01T11:35:28;6.90;;;1.23;;
73084;SDS011;62974;49.460;10.892;2023-02-01T11:37:57;6.32;;;1.75;;
73084;SDS011;62974;49.460;10.892;2023-02-01T11:42:55;5.97;;;1.92;;
73084;SDS011;62974;49.460;10.892;2023-02-01T11:45:25;0.73;;;0.57;;
73084;SDS011;62974;49.460;10.892;2023-02-01T11:47:54;4.18;;;2.03;;
73084;SDS011;62974;49.460;10.892;2023-02-01T11:50:25;2.95;;;1.65;;
73084;SDS011;62974;49.460;10.892;2023-02-01T11:53:08;7.60;;;2.47;;
73084;SDS011;62974;49.460;10.892;2023-02-01T11:55:53;3.17;;;1.50;;
73084;SDS011;62974;49.460;10.892;2023-02-01T11:58:43;6.47;;;0.95;;
73084;SDS011;62974;49.460;10.892;2023-02-01T12:01:28;4.40;;;1.77;;
73084;SDS011;62974;49.460;10.892;2023-02-01T12:04:32;2.03;;;1.35;;
73084;SDS011;62974;49.460;10.892;2023-02-01T12:07:14;2.58;;;1.30;;
73084;SDS011;62974;49.460;10.892;2023-02-01T12:09:55;9.98;;;1.48;;
73084;SDS011;62974;49.460;10.892;2023-02-01T12:12:34;8.25;;;2.45;;
73084;SDS011;62974;49.460;10.892;2023-02-01T12:15:15;4.78;;;1.73;;
73084;SDS011;62974;49.460;10.892;2023-02-01T12:18:05;8.63;;;2.92;;
73084;SDS011;62974;49.460;10.892;2023-02-01T12:21:03;14.98;;;6.15;;
73084;SDS011;62974;49.460;10.892;2023-02-01T12:23:51;24.95;;;8.75;;
73084;SDS011;62974;49.460;10.892;2023-02-01T12:26:42;5.47;;;2.92;;
73084;SDS011;62974;49.460;10.892;2023-02-01T12:29:33;9.13;;;5.40;;
73084;SDS011;62974;49.460;10.892;2023-02-01T12:32:16;7.13;;;1.90;;
73084;SDS011;62974;49.460;10.892;2023-02-01T12:35:05;4.80;;;2.90;;
73084;SDS011;62974;49.460;10.892;2023-02-01T12:37:48;6.85;;;2.60;;
73084;SDS011;62974;49.460;10.892;2023-02-01T12:40:28;8.73;;;2.55;;
73084;SDS011;62974;49.460;10.892;2023-02-01T12:43:07;1.98;;;1.15;;
73084;SDS011;62974;49.460;10.892;2023-02-01T12:45:41;8.65;;;1.85;;
73084;SDS011;62974;49.460;10.892;2023-02-01T12:48:21;5.82;;;2.00;;
73084;SDS011;62974;49.460;10.892;2023-02-01T12:50:55;8.13;;;1.88;;
73084;SDS011;62974;49.460;10.892;2023-02-01T12:53:30;8.30;;;1.40;;
73084;SDS011;62974;49.460;10.892;2023-02-01T12:56:07;2.78;;;1.38;;
73084;SDS011;62974;49.460;10.892;2023-02-01T12:58:40;5.43;;;1.60;;
73084;SDS011;62974;49.460;10.892;2023-02-01T13:01:11;6.40;;;1.65;;
73084;SDS011;62974;49.460;10.892;2023-02-01T13:03:44;5.40;;;2.08;;
73084;SDS011;62974;49.460;10.892;2023-02-01T13:06:22;4.22;;;1.85;;
73084;SDS011;62974;49.460;10.892;2023-02-01T13:08:55;6.75;;;2.83;;
73084;SDS011;62974;49.460;10.892;2023-02-01T13:11:30;4.15;;;1.80;;
73084;SDS011;62974;49.460;10.892;2023-02-01T13:14:02;5.65;;;1.65;;
73084;SDS011;62974;49.460;10.892;2023-02-01T13:16:34;7.72;;;3.08;;
73084;SDS011;62974;49.460;10.892;2023-02-01T13:19:06;5.00;;;1.58;;
73084;SDS011;62974;49.460;10.892;2023-02-01T13:21:41;4.10;;;1.33;;
73084;SDS011;62974;49.460;10.892;2023-02-01T13:24:18;5.85;;;1.75;;
73084;SDS011;62974;49.460;10.892;2023-02-01T13:26:57;8.32;;;2.72;;
73084;SDS011;62974;49.460;10.892;2023-02-01T13:29:25;2.72;;;1.48;;
73084;SDS011;62974;49.460;10.892;2023-02-01T13:32:02;3.53;;;1.33;;
73084;SDS011;62974;49.460;10.892;2023-02-01T13:35:03;2.42;;;1.15;;
73084;SDS011;62974;49.460;10.892;2023-02-01T13:37:51;15.82;;;3.22;;
73084;SDS011;62974;49.460;10.892;2023-02-01T13:40:36;3.17;;;1.60;;
73084;SDS011;62974;49.460;10.892;2023-02-01T13:43:11;6.00;;;1.92;;
73084;SDS011;62974;49.460;10.892;2023-02-01T13:45:42;5.53;;;1.60;;
73084;SDS011;62974;49.460;10.892;2023-02-01T13:48:20;1.58;;;0.55;;
73084;SDS011;62974;49.460;10.892;2023-02-01T13:50:51;5.50;;;1.27;;
73084;SDS011;62974;49.460;10.892;2023-02-01T13:53:23;2.17;;;1.23;;
73084;SDS011;62974;49.460;10.892;2023-02-01T13:55:55;7.35;;;2.08;;
73084;SDS011;62974;49.460;10.892;2023-02-01T13:58:34;1.17;;;0.55;;
73084;SDS011;62974;49.460;10.892;2023-02-01T14:04:00;2.45;;;0.82;;
73084;SDS011;62974;49.460;10.892;2023-02-01T14:06:37;8.77;;;1.92;;
73084;SDS011;62974;49.460;10.892;2023-02-01T14:09:15;8.52;;;1.48;;
73084;SDS011;62974;49.460;10.892;2023-02-01T14:11:47;4.75;;;1.38;;
73084;SDS011;62974;49.460;10.892;2023-02-01T14:23:23;4.25;;;1.20;;
73084;SDS011;62974;49.460;10.892;2023-02-01T14:26:07;0.45;;;0.45;;
73084;SDS011;62974;49.460;10.892;2023-02-01T14:28:56;2.30;;;1.10;;
73084;SDS011;62974;49.460;10.892;2023-02-01T14:34:30;9.68;;;1.02;;
73084;SDS011;62974;49.460;10.892;2023-02-01T14:37:04;3.95;;;0.70;;
73084;SDS011;62974;49.460;10.892;2023-02-01T14:39:35;2.30;;;1.05;;
73084;SDS011;62974;49.460;10.892;2023-02-01T14:42:14;1.73;;;0.50;;
73084;SDS011;62974;49.460;10.892;2023-02-01T14:44:48;4.50;;;1.67;;
73084;SDS011;62974;49.460;10.892;2023-02-01T14:53:14;5.63;;;1.25;;
73084;SDS011;62974;49.460;10.892;2023-02-01T14:55:47;4.95;;;2.08;;
73084;SDS011;62974;49.460;10.892;2023-02-01T14:58:25;8.30;;;1.33;;
73084;SDS011;62974;49.460;10.892;2023-02-01T15:01:00;8.75;;;0.98;;
73084;SDS011;62974;49.460;10.892;2023-02-01T15:03:41;5.90;;;1.63;;
73084;SDS011;62974;49.460;10.892;2023-02-01T15:06:22;1.60;;;0.80;;
73084;SDS011;62974;49.460;10.892;2023-02-01T15:08:54;3.13;;;1.48;;
73084;SDS011;62974;49.460;10.892;2023-02-01T15:11:25;10.23;;;1.77;;
73084;SDS011;62974;49.460;10.892;2023-02-01T15:13:53;2.60;;;1.40;;
73084;SDS011;62974;49.460;10.892;2023-02-01T15:16:22;4.70;;;1.33;;
73084;SDS011;62974;49.460;10.892;2023-02-01T15:21:47;5.00;;;1.40;;
73084;SDS011;62974;49.460;10.892;2023-02-01T15:24:19;0.85;;;0.60;;
73084;SDS011;62974;49.460;10.892;2023-02-01T15:26:48;5.70;;;1.50;;
73084;SDS011;62974;49.460;10.892;2023-02-01T15:29:17;2.22;;;1.60;;
73084;SDS011;62974;49.460;10.892;2023-02-01T15:31:47;6.88;;;2.20;;
73084;SDS011;62974;49.460;10.892;2023-02-01T15:36:52;3.88;;;1.20;;
73084;SDS011;62974;49.460;10.892;2023-02-01T15:39:28;6.32;;;1.88;;
73084;SDS011;62974;49.460;10.892;2023-02-01T15:41:59;6.20;;;1.80;;
73084;SDS011;62974;49.460;10.892;2023-02-01T15:44:30;4.57;;;1.13;;
73084;SDS011;62974;49.460;10.892;2023-02-01T15:47:05;7.30;;;1.80;;
73084;SDS011;62974;49.460;10.892;2023-02-01T15:49:36;6.85;;;1.80;;
73084;SDS011;62974;49.460;10.892;2023-02-01T15:52:11;3.08;;;2.20;;
73084;SDS011;62974;49.460;10.892;2023-02-01T15:54:50;3.92;;;0.95;;
73084;SDS011;62974;49.460;10.892;2023-02-01T15:57:20;4.75;;;1.90;;